Time;durP1;ratioP1;P1;durP2;ratioP2;P2;SDS_P1;SDS_P2;PMS_P1;PMS_P2;Temp;Humidity;BMP_temperature;BMP_pressure;BME280_temperature;BME280_humidity;BME280_pressure;Samples;Min_cycle;Max_cycle;Signal;HPM_P1;HPM_P2
2022/04/11 00:01:05;;;;;;;4.85;1.83;;;15.90;54.90;;;;;;4997957;28;20373;-77
2022/04/11 00:03:30;;;;;;;4.32;1.73;;;15.80;54.80;;;;;;4983420;28;20045;-78
2022/04/11 00:05:56;;;;;;;2.92;1.83;;;15.90;54.90;;;;;;4999889;28;20057;-78
2022/04/11 00:08:22;;;;;;;4.18;1.40;;;15.90;54.80;;;;;;4978752;28;20484;-77
2022/04/11 00:10:48;;;;;;;4.63;2.00;;;15.90;54.80;;;;;;4999776;28;20050;-77
2022/04/11 00:13:14;;;;;;;3.50;1.73;;;15.90;54.80;;;;;;4982952;28;20175;-78
2022/04/11 00:15:40;;;;;;;3.85;1.88;;;15.90;54.70;;;;;;5016441;28;20042;-77
2022/04/11 00:18:09;;;;;;;2.78;1.52;;;15.90;54.80;;;;;;4967425;28;20078;-78
2022/04/11 00:20:35;;;;;;;3.58;1.33;;;15.80;54.60;;;;;;4964281;28;20390;-77
2022/04/11 00:23:04;;;;;;;4.15;2.20;;;15.80;54.70;;;;;;4983222;28;20042;-78
2022/04/11 00:25:30;;;;;;;3.35;1.80;;;15.80;54.70;;;;;;4979678;28;20059;-78
2022/04/11 00:27:56;;;;;;;2.83;1.42;;;15.80;54.70;;;;;;4980046;28;20049;-78
2022/04/11 00:30:22;;;;;;;2.53;1.65;;;15.80;54.60;;;;;;4979353;28;20470;-77
2022/04/11 00:32:48;;;;;;;4.22;1.50;;;15.80;54.70;;;;;;4981554;28;20053;-77
2022/04/11 00:35:14;;;;;;;3.17;1.40;;;15.80;54.70;;;;;;4963833;28;20339;-77
2022/04/11 00:37:40;;;;;;;2.85;1.33;;;15.80;54.60;;;;;;4995326;28;20477;-78
2022/04/11 00:40:08;;;;;;;1.85;1.30;;;15.80;54.40;;;;;;4994959;28;20081;-78
2022/04/11 00:42:34;;;;;;;4.70;1.65;;;15.80;54.30;;;;;;4975281;28;20046;-77
2022/04/11 00:45:04;;;;;;;3.70;1.80;;;15.70;54.40;;;;;;4979503;28;20144;-77
2022/04/11 00:47:30;;;;;;;3.63;1.95;;;15.70;54.50;;;;;;4968825;28;20057;-77
2022/04/11 00:50:02;;;;;;;2.05;1.48;;;15.70;54.60;;;;;;4998386;28;20095;-77
2022/04/11 00:52:31;;;;;;;3.95;1.58;;;15.70;54.70;;;;;;4998615;28;20057;-78
2022/04/11 00:54:58;;;;;;;2.55;1.52;;;15.60;54.60;;;;;;4982442;28;20085;-79
2022/04/11 00:57:25;;;;;;;2.72;1.30;;;15.60;54.70;;;;;;4982022;28;20129;-78
2022/04/11 00:59:52;;;;;;;3.67;2.08;;;15.60;54.80;;;;;;5021604;28;20046;-77
2022/04/11 01:02:17;;;;;;;3.95;1.38;;;15.60;54.70;;;;;;4981391;28;20054;-78
2022/04/11 01:04:43;;;;;;;5.93;1.80;;;15.60;54.70;;;;;;4966165;28;20065;-78
2022/04/11 01:07:09;;;;;;;4.57;1.80;;;15.50;54.60;;;;;;4999094;28;20038;-77
2022/04/11 01:09:35;;;;;;;3.15;1.70;;;15.50;54.70;;;;;;4993463;28;20042;-78
2022/04/11 01:12:02;;;;;;;4.18;1.50;;;15.50;54.80;;;;;;4996231;28;20026;-78
2022/04/11 01:14:28;;;;;;;4.28;1.88;;;15.40;54.70;;;;;;4996067;28;20054;-77
2022/04/11 01:16:57;;;;;;;4.35;1.67;;;15.40;54.80;;;;;;4978667;28;20050;-78
2022/04/11 01:19:23;;;;;;;3.10;1.63;;;15.40;54.90;;;;;;4979200;28;20105;-77
2022/04/11 01:21:49;;;;;;;4.10;1.70;;;15.40;54.90;;;;;;4978969;28;20081;-78
2022/04/11 01:24:22;;;;;;;4.97;1.60;;;15.30;54.90;;;;;;4978982;28;20053;-78
2022/04/11 01:26:49;;;;;;;5.30;1.58;;;15.30;55.00;;;;;;4996173;28;20046;-77
2022/04/11 01:29:18;;;;;;;3.10;1.73;;;15.20;55.00;;;;;;4995092;28;20125;-78
2022/04/11 01:31:45;;;;;;;2.80;1.55;;;15.20;55.00;;;;;;5013470;28;20056;-77
2022/04/11 01:34:11;;;;;;;3.90;1.48;;;15.20;55.00;;;;;;5013155;28;20050;-78
2022/04/11 01:36:36;;;;;;;2.20;1.00;;;15.20;55.00;;;;;;5006764;28;20046;-77
2022/04/11 01:39:03;;;;;;;3.75;1.42;;;15.20;55.00;;;;;;4979032;28;20054;-77
2022/04/11 01:41:28;;;;;;;3.30;1.73;;;15.10;55.00;;;;;;4974803;28;20126;-77
2022/04/11 01:43:54;;;;;;;4.65;1.55;;;15.20;55.10;;;;;;5015239;28;20442;-78
2022/04/11 01:46:20;;;;;;;2.58;1.35;;;15.10;54.90;;;;;;5015296;28;20057;-77
2022/04/11 01:48:45;;;;;;;3.35;1.60;;;15.10;55.10;;;;;;5015070;28;20046;-77
2022/04/11 01:51:13;;;;;;;2.72;1.52;;;15.00;55.00;;;;;;4993795;28;20046;-77
2022/04/11 01:53:39;;;;;;;4.35;1.65;;;15.10;55.20;;;;;;4995731;28;20136;-77
2022/04/11 01:56:05;;;;;;;2.25;1.52;;;15.00;55.10;;;;;;4995613;28;20090;-78
2022/04/11 01:58:31;;;;;;;3.17;1.52;;;15.00;55.20;;;;;;4994817;28;20058;-77
2022/04/11 02:00:58;;;;;;;5.25;1.67;;;15.00;55.10;;;;;;4978620;28;20057;-77
2022/04/11 02:03:25;;;;;;;3.47;1.50;;;15.00;55.10;;;;;;4979096;28;20334;-76
2022/04/11 02:05:51;;;;;;;4.32;1.83;;;15.00;54.90;;;;;;4990764;28;20056;-78
2022/04/11 02:08:17;;;;;;;3.63;1.30;;;15.00;55.00;;;;;;4998216;28;20046;-77
2022/04/11 02:10:42;;;;;;;2.25;1.30;;;15.00;54.90;;;;;;4980256;28;20053;-77
2022/04/11 02:13:09;;;;;;;3.53;1.85;;;14.90;54.90;;;;;;5013781;28;20057;-77
2022/04/11 02:15:35;;;;;;;3.22;1.70;;;14.90;54.90;;;;;;4998208;28;20142;-76
2022/04/11 02:18:01;;;;;;;3.72;1.60;;;14.90;54.90;;;;;;4997966;28;20045;-78
2022/04/11 02:20:27;;;;;;;2.38;1.45;;;14.90;54.80;;;;;;4981341;28;20065;-77
2022/04/11 02:22:55;;;;;;;3.58;1.75;;;14.80;54.80;;;;;;4996964;28;20385;-77
2022/04/11 02:25:23;;;;;;;4.75;1.60;;;14.80;54.70;;;;;;5014459;28;20065;-78
2022/04/11 02:27:49;;;;;;;2.47;1.27;;;14.80;54.80;;;;;;4997155;28;20511;-78
2022/04/11 02:30:16;;;;;;;2.25;1.40;;;14.80;54.70;;;;;;5014607;28;20042;-77
2022/04/11 02:32:42;;;;;;;2.22;1.40;;;14.70;54.70;;;;;;4991672;28;20061;-77
2022/04/11 02:35:09;;;;;;;4.10;1.60;;;14.70;54.70;;;;;;4994871;28;20085;-76
2022/04/11 02:37:35;;;;;;;2.60;1.15;;;14.70;54.70;;;;;;4994796;28;20046;-76
2022/04/11 02:40:05;;;;;;;1.45;1.15;;;14.70;54.70;;;;;;4994932;28;20053;-77
2022/04/11 02:42:31;;;;;;;2.95;1.35;;;14.70;54.70;;;;;;4977910;28;20043;-76
2022/04/11 02:44:57;;;;;;;2.42;1.20;;;14.70;54.70;;;;;;4978101;28;20051;-77
2022/04/11 02:47:23;;;;;;;2.08;1.30;;;14.70;54.70;;;;;;4995530;28;20042;-77
2022/04/11 02:49:48;;;;;;;1.80;1.10;;;14.70;54.70;;;;;;4978021;28;20058;-76
2022/04/11 02:52:15;;;;;;;3.90;1.90;;;14.60;54.60;;;;;;4977650;28;20137;-76
2022/04/11 02:54:41;;;;;;;2.58;1.30;;;14.60;54.40;;;;;;5011552;28;20041;-76
2022/04/11 02:57:07;;;;;;;1.85;1.02;;;14.60;54.40;;;;;;5014332;28;20050;-77
2022/04/11 02:59:34;;;;;;;2.38;1.23;;;14.60;54.40;;;;;;5014548;28;20092;-78
2022/04/11 03:02:00;;;;;;;1.98;1.17;;;14.60;54.30;;;;;;4992842;28;20116;-77
2022/04/11 03:04:27;;;;;;;2.95;1.42;;;14.60;54.90;;;;;;4998631;28;20046;-79
2022/04/11 03:06:53;;;;;;;1.55;1.25;;;14.60;54.30;;;;;;4998754;28;20050;-78
2022/04/11 03:09:19;;;;;;;1.55;0.75;;;14.60;54.30;;;;;;4964782;28;20046;-76
2022/04/11 03:11:45;;;;;;;1.90;1.15;;;14.50;54.30;;;;;;4998937;28;20112;-78
2022/04/11 03:14:10;;;;;;;4.07;1.50;;;14.60;54.40;;;;;;4981680;28;20050;-79
2022/04/11 03:16:36;;;;;;;1.73;1.00;;;14.50;54.90;;;;;;4998569;28;20093;-77
2022/04/11 03:19:02;;;;;;;1.25;0.85;;;14.50;54.30;;;;;;4992701;28;20053;-77
2022/04/11 03:21:28;;;;;;;1.30;0.95;;;14.50;54.30;;;;;;4998915;28;20046;-77
2022/04/11 03:23:54;;;;;;;2.55;0.88;;;14.50;54.30;;;;;;4997461;28;20049;-78
2022/04/11 03:26:20;;;;;;;1.10;0.65;;;14.50;54.30;;;;;;4998624;28;20046;-77
2022/04/11 03:28:46;;;;;;;1.40;1.00;;;14.50;54.30;;;;;;4998046;28;20050;-79
2022/04/11 03:31:11;;;;;;;2.92;1.08;;;14.50;54.30;;;;;;5013707;28;20061;-77
2022/04/11 03:33:37;;;;;;;2.75;0.75;;;14.40;54.30;;;;;;5016226;28;20053;-77
2022/04/11 03:36:05;;;;;;;2.30;1.52;;;14.40;54.30;;;;;;5016906;28;20042;-77
2022/04/11 03:38:31;;;;;;;1.30;0.60;;;14.40;54.30;;;;;;5000920;28;20057;-77
2022/04/11 03:40:56;;;;;;;1.02;0.80;;;14.40;54.30;;;;;;5006642;28;20381;-78
2022/04/11 03:43:22;;;;;;;2.70;0.90;;;14.40;55.00;;;;;;4983726;28;20043;-78
2022/04/11 03:45:48;;;;;;;1.70;0.88;;;14.30;54.30;;;;;;4980986;28;20061;-77
2022/04/11 03:48:13;;;;;;;1.95;0.90;;;14.30;54.30;;;;;;4997346;28;20385;-77
2022/04/11 03:50:39;;;;;;;1.95;0.88;;;14.30;54.30;;;;;;4997914;28;20125;-77
2022/04/11 03:53:05;;;;;;;2.08;1.02;;;14.30;54.40;;;;;;4997232;28;20046;-77
2022/04/11 03:55:31;;;;;;;1.23;0.82;;;14.30;54.40;;;;;;4997399;28;20425;-77
2022/04/11 03:57:57;;;;;;;1.77;0.90;;;14.30;54.40;;;;;;4997648;28;20058;-78
2022/04/11 04:00:23;;;;;;;1.92;1.17;;;14.30;54.40;;;;;;4980757;28;20104;-77
2022/04/11 04:02:49;;;;;;;1.45;1.13;;;14.30;54.50;;;;;;5008704;28;20112;-77
2022/04/11 04:05:15;;;;;;;1.17;0.80;;;14.30;54.60;;;;;;5017360;28;20053;-78
2022/04/11 04:07:41;;;;;;;1.98;0.80;;;14.30;54.60;;;;;;5016182;28;20049;-76
2022/04/11 04:10:07;;;;;;;1.58;0.73;;;14.20;54.50;;;;;;4999123;28;20100;-78
2022/04/11 04:12:33;;;;;;;1.65;0.82;;;14.20;54.50;;;;;;4995898;28;20509;-78
2022/04/11 04:15:00;;;;;;;1.65;0.90;;;14.20;54.50;;;;;;4997965;28;20142;-77
2022/04/11 04:17:25;;;;;;;2.63;1.10;;;14.20;54.40;;;;;;4996755;28;20374;-77
2022/04/11 04:19:51;;;;;;;2.17;1.00;;;14.20;54.50;;;;;;4997224;28;20045;-77
2022/04/11 04:22:18;;;;;;;1.33;0.77;;;14.20;54.50;;;;;;4997779;28;20068;-79
2022/04/11 04:24:44;;;;;;;3.17;1.35;;;14.20;54.40;;;;;;5016479;28;20458;-76
2022/04/11 04:27:10;;;;;;;1.95;0.70;;;14.10;54.40;;;;;;4980338;28;20198;-78
2022/04/11 04:29:36;;;;;;;2.22;1.00;;;14.20;54.50;;;;;;4996885;28;20129;-76
2022/04/11 04:32:02;;;;;;;1.77;0.75;;;14.20;54.60;;;;;;4979493;28;20050;-77
2022/04/11 04:34:30;;;;;;;1.35;0.70;;;14.20;54.60;;;;;;4979706;28;20058;-77
2022/04/11 04:36:56;;;;;;;2.28;0.90;;;14.20;54.60;;;;;;4996739;28;20042;-76
2022/04/11 04:39:22;;;;;;;1.90;1.02;;;14.20;54.60;;;;;;4979778;28;20531;-79
2022/04/11 04:41:47;;;;;;;1.08;0.73;;;14.10;54.60;;;;;;4996333;28;20125;-77
2022/04/11 04:44:13;;;;;;;1.73;0.73;;;14.10;54.60;;;;;;4992746;28;20046;-78
2022/04/11 04:46:38;;;;;;;1.30;0.98;;;14.10;54.70;;;;;;4979559;28;20120;-78
2022/04/11 04:49:04;;;;;;;2.78;0.88;;;14.10;54.70;;;;;;4995861;28;20048;-78
2022/04/11 04:51:30;;;;;;;2.35;1.10;;;14.10;54.70;;;;;;4979254;28;20050;-77
2022/04/11 04:53:56;;;;;;;1.38;0.70;;;14.10;54.70;;;;;;4996442;28;20121;-77
2022/04/11 04:56:22;;;;;;;2.85;1.10;;;14.10;54.80;;;;;;4996253;28;20042;-76
2022/04/11 04:58:49;;;;;;;2.15;0.82;;;14.10;54.80;;;;;;5005329;28;20058;-76
2022/04/11 05:01:15;;;;;;;2.00;0.93;;;14.10;54.70;;;;;;5016030;28;20408;-78
2022/04/11 05:03:41;;;;;;;2.65;1.30;;;14.10;54.70;;;;;;5011408;28;20060;-77
2022/04/11 05:06:07;;;;;;;3.90;1.58;;;14.10;54.80;;;;;;5003780;28;20131;-74
2022/04/11 05:08:33;;;;;;;4.55;1.52;;;14.10;54.70;;;;;;4990554;28;20045;-76
2022/04/11 05:11:02;;;;;;;4.40;1.60;;;14.10;54.10;;;;;;5014072;28;20045;-76
2022/04/11 05:13:28;;;;;;;4.60;1.58;;;14.10;53.10;;;;;;4978703;28;20053;-74
2022/04/11 05:15:54;;;;;;;3.20;1.17;;;14.20;52.80;;;;;;4996210;28;20046;-75
2022/04/11 05:18:19;;;;;;;3.22;1.20;;;14.20;52.40;;;;;;4996066;28;20117;-74
2022/04/11 05:20:45;;;;;;;5.32;1.80;;;14.20;52.00;;;;;;4996472;28;20439;-76
2022/04/11 05:23:11;;;;;;;6.82;1.95;;;14.20;51.60;;;;;;4984049;28;20477;-71
2022/04/11 05:25:37;;;;;;;5.95;2.13;;;14.20;51.80;;;;;;5032245;28;20042;-76
2022/04/11 05:28:03;;;;;;;4.22;1.23;;;14.10;52.50;;;;;;5032640;28;20068;-74
2022/04/11 05:30:35;;;;;;;4.10;1.45;;;14.10;52.40;;;;;;4997685;28;20054;-77
2022/04/11 05:33:01;;;;;;;4.25;1.50;;;14.20;52.40;;;;;;4982340;28;20054;-76
2022/04/11 05:35:27;;;;;;;5.18;1.60;;;14.40;52.70;;;;;;4990099;28;20030;-73
2022/04/11 05:37:53;;;;;;;6.25;1.92;;;14.60;53.10;;;;;;4995797;28;20038;-76
2022/04/11 05:40:18;;;;;;;3.30;1.35;;;14.80;53.30;;;;;;4996012;28;20042;-71
2022/04/11 05:42:44;;;;;;;4.65;1.25;;;15.00;53.50;;;;;;5022127;28;20061;-80
2022/04/11 05:45:10;;;;;;;3.63;1.27;;;15.20;53.60;;;;;;5015381;28;20034;-76
2022/04/11 05:47:36;;;;;;;4.60;1.98;;;15.00;52.20;;;;;;5014697;28;20057;-76
2022/04/11 05:50:02;;;;;;;5.50;1.38;;;14.90;52.40;;;;;;5014615;28;20050;-76
2022/04/11 05:52:27;;;;;;;4.20;1.40;;;14.80;54.00;;;;;;4998647;28;20100;-76
2022/04/11 05:54:53;;;;;;;4.20;1.35;;;14.90;54.40;;;;;;4998178;28;20395;-77
2022/04/11 05:57:19;;;;;;;3.70;1.30;;;15.10;54.30;;;;;;4978278;28;20119;-76
2022/04/11 05:59:44;;;;;;;3.08;1.73;;;15.20;54.20;;;;;;5001076;28;20445;-76
2022/04/11 06:02:10;;;;;;;9.35;1.63;;;15.00;53.30;;;;;;4974208;28;20070;-75
2022/04/11 06:04:40;;;;;;;4.18;1.25;;;14.90;53.70;;;;;;4989021;28;20416;-77
2022/04/11 06:07:06;;;;;;;7.63;1.17;;;14.90;54.80;;;;;;5017105;28;20069;-74
2022/04/11 06:09:32;;;;;;;5.78;1.13;;;15.10;54.80;;;;;;5013969;28;20045;-75
2022/04/11 06:11:58;;;;;;;2.25;1.20;;;15.30;54.60;;;;;;5014577;28;20041;-75
2022/04/11 06:14:24;;;;;;;3.38;1.20;;;15.50;54.30;;;;;;4993842;28;20046;-74
2022/04/11 06:16:49;;;;;;;5.63;1.60;;;15.60;53.90;;;;;;4995420;28;20046;-75
2022/04/11 06:19:17;;;;;;;3.03;0.95;;;15.80;53.70;;;;;;4978540;28;20050;-76
2022/04/11 06:21:43;;;;;;;2.15;0.80;;;15.80;53.50;;;;;;4994350;28;20109;-75
2022/04/11 06:24:09;;;;;;;6.10;1.20;;;16.00;53.30;;;;;;4978616;28;20042;-75
2022/04/11 06:26:34;;;;;;;2.28;0.70;;;16.10;53.20;;;;;;4995380;28;20133;-75
2022/04/11 06:29:00;;;;;;;3.63;1.02;;;16.10;53.10;;;;;;5018568;28;20445;-75
2022/04/11 06:31:26;;;;;;;3.40;1.05;;;16.20;53.00;;;;;;5006958;28;20100;-76
2022/04/11 06:33:51;;;;;;;3.60;0.80;;;16.20;52.90;;;;;;4993241;28;20058;-75
2022/04/11 06:36:17;;;;;;;4.28;1.10;;;16.20;52.90;;;;;;4996900;28;20038;-77
2022/04/11 06:38:43;;;;;;;3.60;1.05;;;16.20;52.80;;;;;;4982374;28;20050;-75
2022/04/11 06:41:09;;;;;;;2.63;0.88;;;16.20;52.90;;;;;;4999723;28;20385;-75
2022/04/11 06:43:34;;;;;;;4.72;1.35;;;16.30;52.90;;;;;;4995710;28;20054;-75
2022/04/11 06:46:00;;;;;;;2.85;0.98;;;16.30;53.20;;;;;;5014229;28;20125;-75
2022/04/11 06:48:26;;;;;;;5.53;1.45;;;16.30;53.20;;;;;;5000462;28;20453;-77
2022/04/11 06:50:53;;;;;;;2.75;0.77;;;16.30;53.20;;;;;;5001178;28;20038;-75
2022/04/11 06:53:19;;;;;;;5.20;1.55;;;16.30;53.30;;;;;;4967399;28;20125;-77
2022/04/11 06:55:47;;;;;;;3.95;1.00;;;16.30;53.50;;;;;;4981365;28;20038;-76
2022/04/11 06:58:19;;;;;;;12.63;1.63;;;16.40;53.50;;;;;;4995057;28;20050;-73
2022/04/11 07:00:48;;;;;;;5.70;1.23;;;16.40;53.50;;;;;;4998703;28;20394;-75
2022/04/11 07:03:14;;;;;;;9.98;1.58;;;16.40;53.40;;;;;;4980816;28;20054;-73
2022/04/11 07:05:40;;;;;;;7.07;1.20;;;16.50;53.50;;;;;;5009615;28;20044;-74
2022/04/11 07:08:09;;;;;;;7.72;1.33;;;16.50;53.60;;;;;;5000153;28;20416;-74
2022/04/11 07:14:27;;;;;;;11.38;1.85;;;16.70;53.80;;;;;;4945163;29;20059;-76
2022/04/11 07:17:24;;;;;;;8.10;2.05;;;16.70;54.00;;;;;;4937989;29;20134;-75
2022/04/11 07:24:23;;;;;;;;;;;;;;;;;;;;;
2022/04/11 07:27:10;;;;;;;7.07;2.00;;;16.80;54.00;;;;;;4936389;29;20042;-75
2022/04/11 07:33:27;;;;;;;4.70;1.45;;;16.80;53.70;;;;;;4934597;29;20490;-76
2022/04/11 07:35:52;;;;;;;8.05;1.00;;;16.90;53.80;;;;;;4941996;28;20048;-76
2022/04/11 07:38:19;;;;;;;6.30;1.23;;;16.90;53.80;;;;;;4937639;29;20062;-76
2022/04/11 07:40:45;;;;;;;11.65;1.75;;;16.90;53.80;;;;;;4955021;29;20057;-75
2022/04/11 07:43:11;;;;;;;5.65;2.03;;;17.00;53.70;;;;;;4956231;29;20054;-75
2022/04/11 07:45:36;;;;;;;6.72;1.30;;;17.00;53.60;;;;;;4922781;29;20136;-76
2022/04/11 07:48:02;;;;;;;7.82;1.20;;;17.00;53.60;;;;;;4955137;28;20073;-75
2022/04/11 07:50:28;;;;;;;7.18;1.50;;;17.10;53.50;;;;;;4997131;28;20082;-76
2022/04/11 07:52:54;;;;;;;8.90;1.48;;;17.10;53.40;;;;;;4999976;28;20132;-75
2022/04/11 07:55:24;;;;;;;4.90;1.30;;;17.10;53.30;;;;;;4984851;28;20072;-76
2022/04/11 07:57:50;;;;;;;3.95;1.17;;;17.10;53.20;;;;;;4980898;28;20082;-75
2022/04/11 08:00:22;;;;;;;5.50;1.17;;;17.20;53.10;;;;;;4998316;28;20108;-76
2022/04/11 08:02:56;;;;;;;5.03;1.30;;;17.20;53.00;;;;;;4984106;28;20367;-74
2022/04/11 08:05:23;;;;;;;4.95;1.20;;;17.20;53.10;;;;;;4988232;28;20049;-76
2022/04/11 08:07:55;;;;;;;2.65;1.10;;;17.20;53.00;;;;;;4980005;28;20060;-75
2022/04/11 08:10:23;;;;;;;6.53;0.90;;;17.20;53.00;;;;;;4966475;28;20446;-75
2022/04/11 08:12:54;;;;;;;8.48;1.40;;;17.30;53.10;;;;;;4997306;28;20054;-76
2022/04/11 08:15:20;;;;;;;3.45;1.15;;;17.20;53.00;;;;;;5019494;28;20048;-75
2022/04/11 08:17:46;;;;;;;5.70;1.20;;;17.30;53.10;;;;;;4990936;28;20077;-75
2022/04/11 08:20:14;;;;;;;3.20;1.08;;;17.30;53.20;;;;;;4981187;28;20132;-74
2022/04/11 08:22:40;;;;;;;7.35;1.23;;;17.30;53.30;;;;;;5017726;28;20552;-76
2022/04/11 08:25:08;;;;;;;4.22;0.80;;;17.40;53.80;;;;;;4996246;28;20042;-75
2022/04/11 08:27:43;;;;;;;5.97;1.17;;;17.40;53.80;;;;;;5006767;28;20044;-76
2022/04/11 08:30:15;;;;;;;4.65;0.82;;;17.40;53.70;;;;;;4976060;28;20042;-75
2022/04/11 08:32:47;;;;;;;10.27;1.10;;;17.40;53.70;;;;;;4992163;28;20038;-75
2022/04/11 08:35:14;;;;;;;5.70;1.30;;;17.40;53.70;;;;;;4989379;28;20428;-75
2022/04/11 08:37:41;;;;;;;8.68;1.58;;;17.50;53.70;;;;;;4979815;28;20042;-74
2022/04/11 08:40:12;;;;;;;7.65;1.55;;;17.50;53.70;;;;;;5016135;28;20045;-75
2022/04/11 08:42:39;;;;;;;7.25;1.55;;;17.50;53.70;;;;;;4989985;28;20109;-75
2022/04/11 08:45:05;;;;;;;7.75;1.30;;;17.50;53.70;;;;;;4988746;28;20766;-75
2022/04/11 08:47:42;;;;;;;4.38;0.93;;;17.50;53.80;;;;;;5004835;28;20038;-76
2022/04/11 08:50:08;;;;;;;4.13;1.10;;;17.50;54.00;;;;;;5005276;28;20050;-75
2022/04/11 08:52:36;;;;;;;4.15;0.98;;;17.50;54.30;;;;;;4972406;28;20393;-76
2022/04/11 08:55:02;;;;;;;14.13;1.33;;;17.50;54.30;;;;;;4988605;28;20092;-75
2022/04/11 08:57:28;;;;;;;3.80;1.10;;;17.40;54.20;;;;;;4973238;28;20093;-75
2022/04/11 08:59:55;;;;;;;8.40;1.52;;;17.40;54.80;;;;;;5014929;28;20120;-76
2022/04/11 09:02:31;;;;;;;5.28;1.20;;;17.40;55.50;;;;;;4985215;28;20097;-76
2022/04/11 09:04:56;;;;;;;6.93;1.17;;;17.40;55.20;;;;;;5005888;28;20046;-76
2022/04/11 09:07:23;;;;;;;3.75;0.70;;;17.30;55.60;;;;;;5004767;28;20418;-75
2022/04/11 09:09:49;;;;;;;6.32;1.15;;;17.30;55.50;;;;;;5002105;28;20050;-77
2022/04/11 09:12:17;;;;;;;6.70;1.13;;;17.30;55.40;;;;;;5005655;28;20112;-76
2022/04/11 09:14:50;;;;;;;5.53;0.70;;;17.20;55.40;;;;;;4993639;28;20100;-77
2022/04/11 09:17:16;;;;;;;4.27;0.70;;;17.20;55.70;;;;;;5014683;28;20125;-75
2022/04/11 09:19:42;;;;;;;6.03;0.80;;;17.20;56.20;;;;;;4981882;28;20132;-76
2022/04/11 09:22:08;;;;;;;5.07;0.88;;;17.30;56.70;;;;;;5014551;28;20199;-75
2022/04/11 09:24:33;;;;;;;2.85;1.08;;;17.20;56.30;;;;;;4993420;28;20058;-75
2022/04/11 09:26:59;;;;;;;2.03;0.73;;;17.30;56.00;;;;;;5012787;28;20073;-76
2022/04/11 09:29:26;;;;;;;2.97;0.80;;;17.30;55.90;;;;;;4987813;28;20086;-76
2022/04/11 09:31:53;;;;;;;2.88;0.52;;;17.30;56.30;;;;;;4990630;28;20076;-77
2022/04/11 09:34:21;;;;;;;4.13;0.65;;;17.30;56.80;;;;;;5012754;28;20080;-76
2022/04/11 09:36:55;;;;;;;2.78;0.70;;;17.20;57.10;;;;;;5003415;28;20051;-76
2022/04/11 09:39:29;;;;;;;3.63;0.70;;;17.30;56.60;;;;;;4994936;28;20125;-75
2022/04/11 09:41:57;;;;;;;;;;;17.30;56.60;;;;;;4997091;28;20046;-76
2022/04/11 09:44:23;;;;;;;2.92;0.57;;;17.30;56.50;;;;;;4995739;28;19928;-75
2022/04/11 09:46:50;;;;;;;7.55;0.98;;;17.30;56.90;;;;;;4995678;28;20030;-75
2022/04/11 09:49:17;;;;;;;1.90;0.43;;;17.30;57.00;;;;;;5001162;28;20042;-76
2022/04/11 09:52:09;;;;;;;6.05;0.93;;;17.30;57.30;;;;;;5014848;28;20492;-75
2022/04/11 09:54:37;;;;;;;6.18;1.50;;;17.30;56.80;;;;;;5014805;28;20045;-77
2022/04/11 09:57:05;;;;;;;3.60;0.68;;;17.20;57.00;;;;;;4998045;28;20115;-74
2022/04/11 09:59:31;;;;;;;5.03;1.05;;;17.30;57.10;;;;;;5010138;28;20108;-76
2022/04/11 10:01:57;;;;;;;4.10;0.60;;;17.30;57.10;;;;;;4994047;28;20469;-76
2022/04/11 10:04:24;;;;;;;1.17;0.35;;;17.30;57.30;;;;;;5012109;28;20065;-75
2022/04/11 10:06:50;;;;;;;3.15;0.82;;;17.30;57.40;;;;;;4970322;28;20161;-77
2022/04/11 10:09:16;;;;;;;1.38;0.40;;;17.20;57.40;;;;;;5009153;28;20373;-76
2022/04/11 10:11:45;;;;;;;3.38;0.63;;;17.30;57.20;;;;;;4989460;28;20065;-74
2022/04/11 10:14:12;;;;;;;2.05;0.40;;;17.30;57.40;;;;;;4998307;28;20059;-76
2022/04/11 10:16:44;;;;;;;6.30;1.05;;;17.30;57.50;;;;;;5008302;28;20064;-77
2022/04/11 10:19:11;;;;;;;3.42;0.50;;;17.30;57.50;;;;;;4992191;28;20118;-75
2022/04/11 10:21:41;;;;;;;4.65;1.23;;;17.30;57.50;;;;;;5008368;28;20050;-75
2022/04/11 10:24:18;;;;;;;2.63;0.70;;;17.30;57.60;;;;;;5004202;28;20060;-75
2022/04/11 10:26:52;;;;;;;8.40;0.70;;;17.30;57.40;;;;;;5016137;28;20457;-75
2022/04/11 10:29:35;;;;;;;6.53;1.15;;;17.30;57.50;;;;;;5016843;28;20473;-76
2022/04/11 10:32:25;;;;;;;5.65;1.10;;;17.30;56.40;;;;;;4997399;28;20046;-75
2022/04/11 10:34:55;;;;;;;4.18;0.80;;;17.30;55.00;;;;;;4992924;28;20488;-75
2022/04/11 10:37:26;;;;;;;5.55;1.10;;;17.30;55.30;;;;;;5017897;28;20112;-75
2022/04/11 10:39:53;;;;;;;5.63;0.80;;;17.30;55.10;;;;;;4996774;28;20058;-75
2022/04/11 10:42:20;;;;;;;3.15;0.90;;;17.20;54.00;;;;;;5018407;28;20038;-77
2022/04/11 10:44:54;;;;;;;6.10;0.93;;;17.20;54.10;;;;;;5010694;28;20042;-74
2022/04/11 10:47:22;;;;;;;6.35;1.65;;;17.20;54.90;;;;;;4981380;28;20406;-77
2022/04/11 10:49:49;;;;;;;3.15;1.70;;;17.30;53.30;;;;;;4973457;28;20053;-76
2022/04/11 10:52:32;;;;;;;5.32;1.60;;;17.30;51.10;;;;;;5020012;28;20471;-74
2022/04/11 10:55:07;;;;;;;4.07;1.48;;;17.30;50.40;;;;;;5015973;28;20481;-75
2022/04/11 10:57:38;;;;;;;3.22;1.27;;;17.20;51.40;;;;;;5024151;28;20061;-75
2022/04/11 11:00:11;;;;;;;6.18;2.63;;;17.20;51.80;;;;;;4984220;28;20771;-76
2022/04/11 11:02:56;;;;;;;4.53;2.13;;;17.20;52.00;;;;;;5018634;28;20037;-74
2022/04/11 11:05:29;;;;;;;10.63;8.20;;;17.10;50.90;;;;;;5016115;28;20110;-76
2022/04/11 11:08:09;;;;;;;7.53;5.15;;;17.20;50.90;;;;;;5002367;28;20368;-76
2022/04/11 11:10:42;;;;;;;8.43;2.65;;;17.20;49.30;;;;;;4999340;28;20061;-74
2022/04/11 11:13:47;;;;;;;5.03;3.03;;;17.20;46.40;;;;;;4989592;28;20065;-72
2022/04/11 11:16:26;;;;;;;6.43;2.40;;;17.20;45.80;;;;;;4982268;28;20118;-74
2022/04/11 11:18:52;;;;;;;3.47;1.48;;;17.20;46.80;;;;;;4997674;28;20046;-76
2022/04/11 11:21:41;;;;;;;5.07;1.60;;;17.20;46.80;;;;;;4996968;28;20053;-74
2022/04/11 11:24:12;;;;;;;4.90;1.40;;;17.30;46.30;;;;;;4996664;28;20439;-77
2022/04/11 11:26:46;;;;;;;5.75;2.00;;;17.30;45.70;;;;;;4998007;28;20042;-75
2022/04/11 11:29:22;;;;;;;6.72;2.40;;;17.30;42.80;;;;;;4997982;28;20046;-75
2022/04/11 11:31:54;;;;;;;9.30;2.38;;;17.30;42.50;;;;;;4999067;28;20406;-76
2022/04/11 11:34:21;;;;;;;5.38;1.55;;;17.20;42.90;;;;;;4978454;28;20046;-75
2022/04/11 11:36:48;;;;;;;4.63;1.50;;;17.10;43.20;;;;;;4981059;28;20054;-76
2022/04/11 11:39:24;;;;;;;6.15;1.88;;;17.20;42.90;;;;;;4997882;28;20042;-76
2022/04/11 11:41:56;;;;;;;4.32;1.25;;;17.20;42.70;;;;;;4998366;28;20125;-78
2022/04/11 11:44:22;;;;;;;3.33;1.50;;;17.20;42.60;;;;;;4999442;28;20084;-76
2022/04/11 11:46:49;;;;;;;4.90;1.30;;;17.30;42.40;;;;;;4995905;28;20058;-76
2022/04/11 11:49:15;;;;;;;5.25;1.45;;;17.30;42.00;;;;;;4996464;28;20042;-75
2022/04/11 11:51:41;;;;;;;3.92;1.60;;;17.40;41.70;;;;;;4977446;28;20054;-76
2022/04/11 11:54:06;;;;;;;3.97;1.77;;;17.40;41.80;;;;;;4997586;28;20100;-76
2022/04/11 11:56:47;;;;;;;4.32;1.73;;;17.40;41.80;;;;;;4997113;28;20042;-75
2022/04/11 11:59:16;;;;;;;4.85;1.23;;;17.40;41.80;;;;;;4990466;28;20525;-77
2022/04/11 12:04:35;;;;;;;3.65;1.63;;;17.50;42.20;;;;;;4997722;28;20331;-75
2022/04/11 12:07:00;;;;;;;4.25;1.52;;;17.50;41.60;;;;;;4960178;28;20094;-77
2022/04/11 12:09:40;;;;;;;3.10;1.25;;;17.50;41.40;;;;;;4939743;29;20123;-76
2022/04/11 12:12:31;;;;;;;3.50;1.75;;;17.50;41.40;;;;;;4973299;28;20450;-77
2022/04/11 12:15:10;;;;;;;1.88;0.90;;;17.60;41.90;;;;;;4941297;28;20054;-77
2022/04/11 12:32:50;;;;;;;3.35;1.13;;;17.60;43.90;;;;;;4878173;29;20053;-76
2022/04/11 12:44:54;;;;;;;3.63;1.33;;;17.60;44.60;;;;;;4825714;29;20046;-76
2022/04/11 13:02:56;;;;;;;2.85;1.35;;;17.60;44.70;;;;;;4687256;30;20080;-75
2022/04/11 13:05:28;;;;;;;5.30;1.10;;;17.60;44.60;;;;;;4714607;30;20053;-76
2022/04/11 13:07:54;;;;;;;3.60;1.50;;;17.60;44.60;;;;;;4714101;30;20144;-76
2022/04/11 13:10:31;;;;;;;3.53;1.23;;;17.50;44.60;;;;;;4762550;29;20171;-74
2022/04/11 13:12:57;;;;;;;2.60;1.10;;;17.60;44.30;;;;;;4871349;29;20193;-76
2022/04/11 13:15:23;;;;;;;3.70;1.40;;;17.50;44.10;;;;;;4965709;28;20058;-75
2022/04/11 13:20:34;;;;;;;5.70;1.85;;;17.50;44.20;;;;;;4976283;28;20054;-76
2022/04/11 13:23:02;;;;;;;3.92;1.80;;;17.50;43.90;;;;;;4959270;28;20046;-76
2022/04/11 13:25:36;;;;;;;2.38;0.88;;;17.50;43.40;;;;;;4991715;28;20039;-76
2022/04/11 13:28:02;;;;;;;5.05;1.67;;;17.50;43.30;;;;;;4976576;28;20049;-75
2022/04/11 13:30:28;;;;;;;4.90;1.48;;;17.50;43.50;;;;;;4959483;28;20046;-75
2022/04/11 13:32:54;;;;;;;5.05;1.50;;;17.50;43.40;;;;;;4967517;28;20061;-76
2022/04/11 13:35:22;;;;;;;3.13;1.10;;;17.50;43.30;;;;;;4958521;28;20114;-75
2022/04/11 13:37:49;;;;;;;2.53;1.33;;;17.50;43.40;;;;;;4977912;28;20129;-75
2022/04/11 13:40:14;;;;;;;3.50;1.60;;;17.50;43.60;;;;;;4993882;28;20049;-76
2022/04/11 13:42:40;;;;;;;3.95;1.45;;;17.50;43.60;;;;;;4995925;28;20393;-76
2022/04/11 13:45:06;;;;;;;6.85;1.63;;;17.50;43.70;;;;;;4985625;28;20055;-76
2022/04/11 13:47:32;;;;;;;4.38;1.52;;;17.50;43.90;;;;;;4961567;28;20058;-76
2022/04/11 13:49:58;;;;;;;6.45;1.67;;;17.50;44.50;;;;;;4993716;28;20050;-75